sensor_id;sensor_type;location;lat;lon;timestamp;P1;durP1;ratioP1;P2;durP2;ratioP2
86432;SDS011;77092;43.632;1.470;2024-03-08T14:39:03;0.68;;;0.50;;
86432;SDS011;77092;43.632;1.470;2024-03-08T14:41:29;1.55;;;0.52;;
86432;SDS011;77092;43.632;1.470;2024-03-08T14:43:55;0.93;;;0.35;;
86432;SDS011;77092;43.632;1.470;2024-03-08T14:46:22;1.05;;;0.50;;
86432;SDS011;77092;43.632;1.470;2024-03-08T14:48:48;0.70;;;0.40;;
86432;SDS011;77092;43.632;1.470;2024-03-08T14:51:17;0.75;;;0.30;;
86432;SDS011;77092;43.632;1.470;2024-03-08T14:53:46;1.25;;;0.45;;
86432;SDS011;77092;43.632;1.470;2024-03-08T14:56:11;0.77;;;0.38;;
86432;SDS011;77092;43.632;1.470;2024-03-08T14:58:44;0.55;;;0.35;;
86432;SDS011;77092;43.632;1.470;2024-03-08T15:01:14;1.75;;;0.43;;
86432;SDS011;77092;43.632;1.470;2024-03-08T15:03:40;0.52;;;0.30;;
86432;SDS011;77092;43.632;1.470;2024-03-08T15:06:08;0.90;;;0.43;;
86432;SDS011;77092;43.632;1.470;2024-03-08T15:08:35;0.52;;;0.30;;
86432;SDS011;77092;43.632;1.470;2024-03-08T15:11:01;0.57;;;0.40;;
86432;SDS011;77092;43.632;1.470;2024-03-08T15:13:26;1.08;;;0.40;;
86432;SDS011;77092;43.632;1.470;2024-03-08T15:18:40;0.68;;;0.30;;
86432;SDS011;77092;43.632;1.470;2024-03-08T15:21:05;1.83;;;0.52;;
86432;SDS011;77092;43.632;1.470;2024-03-08T15:23:37;0.32;;;0.13;;
86432;SDS011;77092;43.632;1.470;2024-03-08T15:26:03;0.95;;;0.38;;
86432;SDS011;77092;43.632;1.470;2024-03-08T15:28:32;0.50;;;0.40;;
86432;SDS011;77092;43.632;1.470;2024-03-08T15:31:04;0.90;;;0.20;;
86432;SDS011;77092;43.632;1.470;2024-03-08T15:33:31;0.38;;;0.25;;
86432;SDS011;77092;43.632;1.470;2024-03-08T15:46:21;0.65;;;0.30;;
86432;SDS011;77092;43.632;1.470;2024-03-08T15:48:47;1.13;;;0.50;;
86432;SDS011;77092;43.632;1.470;2024-03-08T15:51:14;0.85;;;0.28;;
86432;SDS011;77092;43.632;1.470;2024-03-08T15:53:41;1.35;;;0.45;;
86432;SDS011;77092;43.632;1.470;2024-03-08T15:56:06;1.42;;;0.57;;
86432;SDS011;77092;43.632;1.470;2024-03-08T15:58:33;1.23;;;0.38;;
86432;SDS011;77092;43.632;1.470;2024-03-08T16:01:01;1.65;;;0.60;;
86432;SDS011;77092;43.632;1.470;2024-03-08T16:03:35;0.30;;;0.30;;
86432;SDS011;77092;43.632;1.470;2024-03-08T16:06:00;2.55;;;0.70;;
86432;SDS011;77092;43.632;1.470;2024-03-08T16:08:29;0.88;;;0.38;;
86432;SDS011;77092;43.632;1.470;2024-03-08T16:10:54;0.38;;;0.30;;
86432;SDS011;77092;43.632;1.470;2024-03-08T16:13:21;0.73;;;0.35;;
86432;SDS011;77092;43.632;1.470;2024-03-08T16:15:48;1.88;;;0.55;;
86432;SDS011;77092;43.632;1.470;2024-03-08T16:18:15;1.90;;;0.52;;
86432;SDS011;77092;43.632;1.470;2024-03-08T16:20:41;1.13;;;0.38;;
86432;SDS011;77092;43.632;1.470;2024-03-08T16:23:08;0.93;;;0.38;;
86432;SDS011;77092;43.632;1.470;2024-03-08T16:25:35;0.55;;;0.50;;
86432;SDS011;77092;43.632;1.470;2024-03-08T16:28:01;0.45;;;0.32;;
86432;SDS011;77092;43.632;1.470;2024-03-08T16:30:27;0.73;;;0.47;;
86432;SDS011;77092;43.632;1.470;2024-03-08T16:32:57;1.95;;;0.73;;
86432;SDS011;77092;43.632;1.470;2024-03-08T16:35:22;1.05;;;0.57;;
86432;SDS011;77092;43.632;1.470;2024-03-08T16:37:48;1.52;;;0.43;;
86432;SDS011;77092;43.632;1.470;2024-03-08T16:40:14;1.05;;;0.55;;
86432;SDS011;77092;43.632;1.470;2024-03-08T16:42:43;0.40;;;0.22;;
86432;SDS011;77092;43.632;1.470;2024-03-08T16:45:10;2.40;;;0.57;;
86432;SDS011;77092;43.632;1.470;2024-03-08T16:47:39;1.48;;;0.60;;
86432;SDS011;77092;43.632;1.470;2024-03-08T16:50:05;2.05;;;0.80;;
86432;SDS011;77092;43.632;1.470;2024-03-08T16:52:33;1.85;;;0.70;;
86432;SDS011;77092;43.632;1.470;2024-03-08T16:54:59;2.30;;;0.63;;
86432;SDS011;77092;43.632;1.470;2024-03-08T16:57:25;2.42;;;1.30;;
86432;SDS011;77092;43.632;1.470;2024-03-08T16:59:51;1.27;;;0.65;;
86432;SDS011;77092;43.632;1.470;2024-03-08T17:02:17;3.60;;;1.33;;
86432;SDS011;77092;43.632;1.470;2024-03-08T17:04:42;3.58;;;0.98;;
86432;SDS011;77092;43.632;1.470;2024-03-08T17:07:08;1.55;;;0.50;;
86432;SDS011;77092;43.632;1.470;2024-03-08T17:09:34;2.47;;;0.90;;
86432;SDS011;77092;43.632;1.470;2024-03-08T17:12:03;2.38;;;1.10;;
86432;SDS011;77092;43.632;1.470;2024-03-08T17:14:30;2.22;;;1.00;;
86432;SDS011;77092;43.632;1.470;2024-03-08T17:16:56;1.17;;;0.63;;
86432;SDS011;77092;43.632;1.470;2024-03-08T17:19:24;2.70;;;1.00;;
86432;SDS011;77092;43.632;1.470;2024-03-08T17:21:51;1.90;;;0.85;;
86432;SDS011;77092;43.632;1.470;2024-03-08T17:24:19;2.45;;;1.08;;
86432;SDS011;77092;43.632;1.470;2024-03-08T17:26:48;1.70;;;0.90;;
86432;SDS011;77092;43.632;1.470;2024-03-08T17:29:14;7.15;;;1.30;;
86432;SDS011;77092;43.632;1.470;2024-03-08T17:31:40;1.95;;;1.02;;
86432;SDS011;77092;43.632;1.470;2024-03-08T17:34:07;2.28;;;1.30;;
86432;SDS011;77092;43.632;1.470;2024-03-08T17:36:34;3.20;;;1.20;;
86432;SDS011;77092;43.632;1.470;2024-03-08T17:39:00;4.32;;;1.40;;
86432;SDS011;77092;43.632;1.470;2024-03-08T17:41:26;1.90;;;0.90;;
86432;SDS011;77092;43.632;1.470;2024-03-08T17:43:51;2.58;;;1.33;;
86432;SDS011;77092;43.632;1.470;2024-03-08T17:46:17;3.25;;;1.83;;
86432;SDS011;77092;43.632;1.470;2024-03-08T17:48:42;2.95;;;1.80;;
86432;SDS011;77092;43.632;1.470;2024-03-08T17:51:08;3.22;;;1.88;;
86432;SDS011;77092;43.632;1.470;2024-03-08T17:53:34;4.78;;;1.88;;
86432;SDS011;77092;43.632;1.470;2024-03-08T17:55:59;2.45;;;1.52;;
86432;SDS011;77092;43.632;1.470;2024-03-08T17:58:25;4.47;;;2.92;;
86432;SDS011;77092;43.632;1.470;2024-03-08T18:00:51;8.52;;;3.42;;
86432;SDS011;77092;43.632;1.470;2024-03-08T18:03:18;9.40;;;4.65;;
86432;SDS011;77092;43.632;1.470;2024-03-08T18:05:44;5.13;;;3.03;;
86432;SDS011;77092;43.632;1.470;2024-03-08T18:08:10;4.93;;;2.60;;
86432;SDS011;77092;43.632;1.470;2024-03-08T18:10:36;3.85;;;2.53;;
86432;SDS011;77092;43.632;1.470;2024-03-08T18:13:02;6.38;;;2.40;;
86432;SDS011;77092;43.632;1.470;2024-03-08T18:15:37;5.07;;;2.75;;
86432;SDS011;77092;43.632;1.470;2024-03-08T18:18:04;5.85;;;3.03;;
86432;SDS011;77092;43.632;1.470;2024-03-08T18:20:35;7.13;;;3.45;;
86432;SDS011;77092;43.632;1.470;2024-03-08T18:23:09;5.18;;;2.53;;
86432;SDS011;77092;43.632;1.470;2024-03-08T18:25:34;6.07;;;2.40;;
86432;SDS011;77092;43.632;1.470;2024-03-08T18:28:00;5.07;;;1.58;;
86432;SDS011;77092;43.632;1.470;2024-03-08T18:30:30;3.30;;;1.67;;
86432;SDS011;77092;43.632;1.470;2024-03-08T18:33:01;2.88;;;1.80;;
86432;SDS011;77092;43.632;1.470;2024-03-08T18:35:26;3.13;;;2.10;;
86432;SDS011;77092;43.632;1.470;2024-03-08T18:37:52;2.53;;;1.63;;
86432;SDS011;77092;43.632;1.470;2024-03-08T18:40:17;2.58;;;1.42;;
86432;SDS011;77092;43.632;1.470;2024-03-08T18:42:51;5.30;;;1.55;;
86432;SDS011;77092;43.632;1.470;2024-03-08T18:45:18;3.33;;;1.83;;
86432;SDS011;77092;43.632;1.470;2024-03-08T18:47:46;2.75;;;1.17;;
86432;SDS011;77092;43.632;1.470;2024-03-08T18:50:14;4.00;;;2.00;;
86432;SDS011;77092;43.632;1.470;2024-03-08T18:52:41;3.03;;;1.77;;
86432;SDS011;77092;43.632;1.470;2024-03-08T18:55:07;4.03;;;1.70;;
86432;SDS011;77092;43.632;1.470;2024-03-08T19:00:10;5.38;;;3.45;;
86432;SDS011;77092;43.632;1.470;2024-03-08T19:02:55;3.00;;;2.00;;
86432;SDS011;77092;43.632;1.470;2024-03-08T19:05:23;5.15;;;2.10;;
86432;SDS011;77092;43.632;1.470;2024-03-08T19:07:49;2.40;;;1.77;;
86432;SDS011;77092;43.632;1.470;2024-03-08T19:10:16;4.28;;;2.15;;
86432;SDS011;77092;43.632;1.470;2024-03-08T19:12:46;6.03;;;2.78;;
86432;SDS011;77092;43.632;1.470;2024-03-08T19:15:16;4.93;;;3.30;;
86432;SDS011;77092;43.632;1.470;2024-03-08T19:17:45;4.38;;;2.63;;
86432;SDS011;77092;43.632;1.470;2024-03-08T19:20:12;5.38;;;2.45;;
86432;SDS011;77092;43.632;1.470;2024-03-08T19:22:41;3.35;;;1.95;;
86432;SDS011;77092;43.632;1.470;2024-03-08T19:25:08;4.28;;;2.10;;
86432;SDS011;77092;43.632;1.470;2024-03-08T19:27:35;3.70;;;2.00;;
86432;SDS011;77092;43.632;1.470;2024-03-08T19:30:02;4.47;;;1.90;;
86432;SDS011;77092;43.632;1.470;2024-03-08T19:32:29;4.50;;;1.65;;
86432;SDS011;77092;43.632;1.470;2024-03-08T19:34:55;5.45;;;2.22;;
86432;SDS011;77092;43.632;1.470;2024-03-08T19:37:20;3.08;;;2.08;;
86432;SDS011;77092;43.632;1.470;2024-03-08T19:39:45;4.45;;;2.92;;
86432;SDS011;77092;43.632;1.470;2024-03-08T19:42:11;4.35;;;2.47;;
86432;SDS011;77092;43.632;1.470;2024-03-08T19:44:37;7.45;;;5.15;;
86432;SDS011;77092;43.632;1.470;2024-03-08T19:47:03;18.25;;;15.90;;
86432;SDS011;77092;43.632;1.470;2024-03-08T19:49:30;7.07;;;5.22;;
86432;SDS011;77092;43.632;1.470;2024-03-08T19:51:59;6.32;;;3.10;;
86432;SDS011;77092;43.632;1.470;2024-03-08T19:54:25;6.72;;;4.63;;
86432;SDS011;77092;43.632;1.470;2024-03-08T19:56:50;11.15;;;7.20;;
86432;SDS011;77092;43.632;1.470;2024-03-08T19:59:18;11.57;;;4.97;;
86432;SDS011;77092;43.632;1.470;2024-03-08T20:01:44;9.57;;;5.47;;
86432;SDS011;77092;43.632;1.470;2024-03-08T20:04:09;5.40;;;3.60;;
86432;SDS011;77092;43.632;1.470;2024-03-08T20:06:36;6.82;;;4.38;;
86432;SDS011;77092;43.632;1.470;2024-03-08T20:09:05;7.63;;;4.50;;
86432;SDS011;77092;43.632;1.470;2024-03-08T20:11:31;8.13;;;4.10;;
86432;SDS011;77092;43.632;1.470;2024-03-08T20:13:57;10.90;;;6.47;;
86432;SDS011;77092;43.632;1.470;2024-03-08T20:16:24;22.75;;;12.43;;
86432;SDS011;77092;43.632;1.470;2024-03-08T20:18:49;29.77;;;17.17;;
86432;SDS011;77092;43.632;1.470;2024-03-08T20:21:16;14.88;;;7.78;;
86432;SDS011;77092;43.632;1.470;2024-03-08T20:23:43;13.27;;;7.03;;
86432;SDS011;77092;43.632;1.470;2024-03-08T20:26:09;9.82;;;5.90;;
86432;SDS011;77092;43.632;1.470;2024-03-08T20:28:36;5.45;;;2.90;;
86432;SDS011;77092;43.632;1.470;2024-03-08T20:31:02;4.85;;;2.58;;
86432;SDS011;77092;43.632;1.470;2024-03-08T20:33:29;5.72;;;2.50;;
86432;SDS011;77092;43.632;1.470;2024-03-08T20:35:57;5.30;;;3.17;;
86432;SDS011;77092;43.632;1.470;2024-03-08T20:38:22;6.47;;;2.83;;
86432;SDS011;77092;43.632;1.470;2024-03-08T20:40:51;6.10;;;3.20;;
86432;SDS011;77092;43.632;1.470;2024-03-08T20:43:16;5.45;;;3.05;;
86432;SDS011;77092;43.632;1.470;2024-03-08T20:45:45;5.82;;;3.20;;
86432;SDS011;77092;43.632;1.470;2024-03-08T20:48:12;6.38;;;2.78;;
86432;SDS011;77092;43.632;1.470;2024-03-08T20:50:39;6.07;;;2.60;;
86432;SDS011;77092;43.632;1.470;2024-03-08T20:53:05;4.45;;;2.30;;
86432;SDS011;77092;43.632;1.470;2024-03-08T20:55:38;4.22;;;2.88;;
86432;SDS011;77092;43.632;1.470;2024-03-08T20:58:07;4.80;;;2.83;;
86432;SDS011;77092;43.632;1.470;2024-03-08T21:00:34;5.55;;;2.80;;
86432;SDS011;77092;43.632;1.470;2024-03-08T21:05:39;2.45;;;1.98;;
86432;SDS011;77092;43.632;1.470;2024-03-08T21:08:06;3.47;;;2.13;;
86432;SDS011;77092;43.632;1.470;2024-03-08T21:10:33;5.55;;;2.38;;
86432;SDS011;77092;43.632;1.470;2024-03-08T21:13:01;3.97;;;2.20;;
86432;SDS011;77092;43.632;1.470;2024-03-08T21:15:27;4.97;;;2.97;;
86432;SDS011;77092;43.632;1.470;2024-03-08T21:17:53;3.90;;;2.80;;
86432;SDS011;77092;43.632;1.470;2024-03-08T21:20:18;5.60;;;2.80;;
86432;SDS011;77092;43.632;1.470;2024-03-08T21:22:45;4.15;;;2.13;;
86432;SDS011;77092;43.632;1.470;2024-03-08T21:25:14;4.93;;;2.10;;
86432;SDS011;77092;43.632;1.470;2024-03-08T21:27:43;4.45;;;1.80;;
86432;SDS011;77092;43.632;1.470;2024-03-08T21:30:08;6.22;;;2.58;;
86432;SDS011;77092;43.632;1.470;2024-03-08T21:32:37;3.17;;;2.13;;
86432;SDS011;77092;43.632;1.470;2024-03-08T21:35:03;4.15;;;2.15;;
86432;SDS011;77092;43.632;1.470;2024-03-08T21:37:29;3.47;;;2.05;;
86432;SDS011;77092;43.632;1.470;2024-03-08T21:39:54;3.08;;;1.98;;
86432;SDS011;77092;43.632;1.470;2024-03-08T21:42:19;4.55;;;2.30;;
86432;SDS011;77092;43.632;1.470;2024-03-08T21:44:45;8.13;;;2.78;;
86432;SDS011;77092;43.632;1.470;2024-03-08T21:47:11;3.33;;;1.88;;
86432;SDS011;77092;43.632;1.470;2024-03-08T21:49:37;5.18;;;2.15;;
86432;SDS011;77092;43.632;1.470;2024-03-08T21:52:03;6.32;;;2.00;;
86432;SDS011;77092;43.632;1.470;2024-03-08T21:54:29;4.07;;;1.77;;
86432;SDS011;77092;43.632;1.470;2024-03-08T21:56:55;3.17;;;1.75;;
86432;SDS011;77092;43.632;1.470;2024-03-08T21:59:22;3.30;;;1.63;;
86432;SDS011;77092;43.632;1.470;2024-03-08T22:01:47;2.20;;;1.45;;
86432;SDS011;77092;43.632;1.470;2024-03-08T22:04:17;3.42;;;1.80;;
86432;SDS011;77092;43.632;1.470;2024-03-08T22:06:43;3.72;;;1.65;;
86432;SDS011;77092;43.632;1.470;2024-03-08T22:09:14;2.30;;;1.50;;
86432;SDS011;77092;43.632;1.470;2024-03-08T22:11:45;2.58;;;1.25;;
86432;SDS011;77092;43.632;1.470;2024-03-08T22:14:11;3.78;;;1.63;;
86432;SDS011;77092;43.632;1.470;2024-03-08T22:16:38;4.32;;;1.95;;
86432;SDS011;77092;43.632;1.470;2024-03-08T22:19:05;3.17;;;2.03;;
86432;SDS011;77092;43.632;1.470;2024-03-08T22:21:31;5.63;;;2.70;;
86432;SDS011;77092;43.632;1.470;2024-03-08T22:23:57;5.38;;;2.60;;
86432;SDS011;77092;43.632;1.470;2024-03-08T22:26:23;5.50;;;2.45;;
86432;SDS011;77092;43.632;1.470;2024-03-08T22:28:48;3.90;;;2.38;;
86432;SDS011;77092;43.632;1.470;2024-03-08T22:31:16;4.07;;;2.47;;
86432;SDS011;77092;43.632;1.470;2024-03-08T22:33:43;4.97;;;2.95;;
86432;SDS011;77092;43.632;1.470;2024-03-08T22:36:08;4.65;;;2.80;;
86432;SDS011;77092;43.632;1.470;2024-03-08T22:38:36;4.43;;;2.67;;
86432;SDS011;77092;43.632;1.470;2024-03-08T22:41:02;3.83;;;2.75;;
86432;SDS011;77092;43.632;1.470;2024-03-08T22:43:28;7.93;;;3.80;;
86432;SDS011;77092;43.632;1.470;2024-03-08T22:45:54;5.20;;;2.90;;
86432;SDS011;77092;43.632;1.470;2024-03-08T22:48:20;5.03;;;2.85;;
86432;SDS011;77092;43.632;1.470;2024-03-08T22:50:47;5.32;;;3.38;;
86432;SDS011;77092;43.632;1.470;2024-03-08T22:53:13;4.97;;;2.95;;
86432;SDS011;77092;43.632;1.470;2024-03-08T22:55:39;5.82;;;2.63;;
86432;SDS011;77092;43.632;1.470;2024-03-08T22:58:06;7.85;;;3.30;;
86432;SDS011;77092;43.632;1.470;2024-03-08T23:00:31;5.40;;;2.70;;
86432;SDS011;77092;43.632;1.470;2024-03-08T23:03:02;4.22;;;2.67;;
86432;SDS011;77092;43.632;1.470;2024-03-08T23:05:28;4.10;;;2.80;;
86432;SDS011;77092;43.632;1.470;2024-03-08T23:07:54;4.72;;;2.85;;
86432;SDS011;77092;43.632;1.470;2024-03-08T23:10:24;5.07;;;2.88;;
86432;SDS011;77092;43.632;1.470;2024-03-08T23:12:52;7.40;;;3.22;;
86432;SDS011;77092;43.632;1.470;2024-03-08T23:15:18;5.78;;;2.88;;
86432;SDS011;77092;43.632;1.470;2024-03-08T23:17:44;8.10;;;3.83;;
86432;SDS011;77092;43.632;1.470;2024-03-08T23:20:11;6.57;;;3.78;;
86432;SDS011;77092;43.632;1.470;2024-03-08T23:22:40;6.50;;;3.92;;
86432;SDS011;77092;43.632;1.470;2024-03-08T23:25:19;7.72;;;3.20;;
86432;SDS011;77092;43.632;1.470;2024-03-08T23:27:51;6.32;;;3.17;;
86432;SDS011;77092;43.632;1.470;2024-03-08T23:30:18;5.63;;;2.83;;
86432;SDS011;77092;43.632;1.470;2024-03-08T23:32:53;4.75;;;2.50;;
86432;SDS011;77092;43.632;1.470;2024-03-08T23:35:25;5.15;;;2.55;;
86432;SDS011;77092;43.632;1.470;2024-03-08T23:37:52;7.72;;;2.45;;
86432;SDS011;77092;43.632;1.470;2024-03-08T23:40:19;8.32;;;2.47;;
86432;SDS011;77092;43.632;1.470;2024-03-08T23:42:45;7.90;;;2.30;;
86432;SDS011;77092;43.632;1.470;2024-03-08T23:45:11;13.05;;;2.97;;
86432;SDS011;77092;43.632;1.470;2024-03-08T23:47:41;8.15;;;2.50;;
86432;SDS011;77092;43.632;1.470;2024-03-08T23:50:07;8.77;;;2.97;;
86432;SDS011;77092;43.632;1.470;2024-03-08T23:52:33;8.50;;;3.08;;
86432;SDS011;77092;43.632;1.470;2024-03-08T23:55:00;10.18;;;3.10;;
86432;SDS011;77092;43.632;1.470;2024-03-08T23:57:26;9.43;;;3.20;;
86432;SDS011;77092;43.632;1.470;2024-03-08T23:59:51;5.63;;;2.42;;
